Skip Navigation LinksHome page > Tools > METAR decoder Skip Navigation Links

METAR decoder

Settings

METAR

Chicago O'Hare Intl, Chicago

For information only: do not use for flight planning or navigation.
Latest weather
Observation time Wednesday, March 4, 2015 8:51 AM CST
Local time Wednesday, March 4, 2015 9:11 AM CST
Flight conditions Visual Meteorological Conditions
Winds
Wind direction Northwest (320°)
Wind speed 14 mph
Visibility 10 mi.
Sky condition
Ceiling 10,000 ft. broken clouds
Cloud layer broken clouds 10,000 ft.
Cloud layer overcast 25,000 ft.
Temperature 18°F
Dewpoint 9°F
Altimeter 30.07 in.Hg
Pressure change last 3 hours-0.07 in.Hg
Pressure rising more quickly
Derived measurements
Relative humidity 67%
Wind chill 4°F
Density altitude -2301 ft.
Sea-level pressure 30.10 in.Hg
Remarks
Automated weather observing station with precipitation discriminator.
METAR KORD 041451Z 32012KT 10SM BKN100 OVC250 M08/M13 A3007 RMK AO2 SLP192 T10781128 53025

InnerDrive.Weather 4.0.5505.0 Release CLR 4.0.30319.34014
Copyright ©2015 Inner Drive Technology. All rights reserved. Portions Copyright ©1986-2015 David Braverman.

Find weather

Site navigation


Skip Navigation Links

Place info

Page info

PayPal - The safer, easier way to pay online!

Return home.

Copyright ©2015 Inner Drive Technology. Purveyors of fine, hand-crafted computer software. Page printed 2015-03-04T15:11:47 UTC.